Olho d'Agua do Borges, Brazil
Current Conditions -  °F | °C
As of 8:15 PM on Wednesday 17 Dec 2014 (Local Time) from SBMS Reporting Station
Clear Clear  
Wind Chill: 82°   Ceiling: Unl
Heat Index: 87°   Visibility: 6mi
Dew Point: 72°   Wind: 15mph
Humidity: 70%   Direction: 50°NE
Pressure: 29.88"   Gusts: NA
Location:  5.96°S, 37.71°W
Report Text: SBMS 172315Z 05013KT CAVOK 28/22 Q1012
Loading
Personal Weather Stations






























Interactive Weather Map New forecast layout! Learn more

10-Day Weather Forecast

Advertisements
Track Severe Weather on mobile